Virtual Norwegian is not affiliated with Norwegian Air Shuttle in any way.
If you are looking for the real "Norwegian", or you wish to book Norwegian flights, please visit Norwegian.com


We use cookies to ensure you get the best experience on our website.   ACCEPT

LFPO - ORY - Paris (Orly)

General Info Alternate Airport
ICAO: LFPO Elevation: 291 ft ICAO: LFPG
IATA: ORY Country: France IATA: CDG
City: Paris Charts: Log in to view charts City: Paris
Name: Orly Hub: No Name Charles De Gaulle
General Info
ICAO: LFPO
IATA: ORY
City: Paris
Name: Orly
Elevation: 291 ft
Country: France
Charts: Log in to view charts
Hub: No
 
Alternate Airport
ICAO: LFPG
IATA: CDG
City: Paris
Name: Charles De Gaulle

Weather
170630Z 25009KT 9999 FEW040 04/03 Q1019 NOSIG
Weather
170630Z 25009KT 9999 FEW040 04/03 Q1019 NOSIG

Runway Info
02
Length ILS/LOC Course
2400 m 110.30 019
06
Length ILS/LOC Course
3650 m 108.50 063
08
Length ILS/LOC Course
3320 m 108.15 075
20
Length ILS/LOC Heading
2400 m N/A 198
24
Length ILS/LOC Course
3650 m 110.90 243
26
Length ILS/LOC Course
3320 m 111.75 255

NOTAMs
NOTAMs currently unavailable.
NOTAMs
NOTAMs currently unavailable

Route map
Airport
Airport (hub)